Airfield :
LOGIN :

Register | Disclaimer

   EN    FR    IT 

 










Legend :    VFR   Marginal VFR   IFR   Intensive IFR   Very Intensive IFR
Visi :
Ceiling :
>= 8 km
>= 3000ft
5 to 8 km
1000 to 3000 ft
1500m to 5 km
500 to 1000 ft
800 to 1500m
200 to 500 ft
< 800m
< 200 ft
Symbols :   Thunderstorms  Fog  Heavy snow  Heavy precipitations  Wind > 20 kt
SIGMETs :     Misc.  Thunderstorms  Icing  Turbulence  Mountain Waves  Volcanic Ashes







- Airport Elevation : 392 ft
- IATA code : CDG
- Download approach charts


LFPG - Paris-Aeroport Charles De Gaulle

CURRENT METAR :
  • 211330Z 35005KT 320V020 8000 FEW033 SCT260 16/07 Q1029 NOSIG

EXPIRED METARs :
  • 211300Z 33005KT 280V020 8000 FEW033 SCT260 15/07 Q1029 NOSIG
  • 211230Z 20004KT 170V260 8000 NSC 15/06 Q1029 NOSIG
  • 211200Z 20004G14KT 130V300 7000 NSC 14/07 Q1028 NOSIG
  • 211130Z VRB03KT 7000 NSC 14/07 Q1029 NOSIG
  • 211100Z VRB02KT 7000 NSC 13/07 Q1029 NOSIG

TAF TAF LFPG
Valid from the 21 at 12:00 until the 22 at 18:00 UTC


211100Z 2112/2218 VRB03KT CAVOK TX14/2115Z TN02/2205Z
BECMG 2122/2124 3000 BR
TEMPO 2202/2210 0800 BCFG
PROB40
TEMPO 2204/2210 0500 FG VV///
BECMG 2211/2213 09006KT CAVOK
ATIS : +33 1 48 62 10 92
No reported NOTAMs for that airfield.



MET'MAP, your aeronautical weather chart ! - Copyright ORBIFLY December 2007 - Disclaimer

ORBIFLY MET'MAP TEAM :

Programming & Development : Alexandra Zaïnal
Concept & Development : Baudouin d'Aumeries
Co-Development & Prog : Marc-Olivier Méhu
Technical & hardware support : Manuel Goepfert

Contact : metmap@orbifly.com




SOURCES & CREDITS :

   NOAA